Terminal Aerodrome Forecast
Issued by NWS Wilmington, NC

Home | Current Version | Previous Version | Text Only | Print | Product List | Glossary On
Versions: 1 2 3 4 5 6 7 8 9 10 11 12 13 14 15 16 17 18 19 20 21 22 23 24 25 26 27 28 29 30
000
FTUS42 KILM 161126
TAFLBT
TAF
KLBT 161126Z 1612/1712 22005KT P6SM SCT200
     FM161500 22009KT P6SM SCT050
     FM162000 20007KT P6SM FEW200
     FM170600 22004KT P6SM SKC
     AMD NOT SKED=

USA.gov is the U.S. government's official web portal to all federal, state and local government web resources and services.